.
WxDataArchive / Data Records for 2010-02-19
2010-02-18 February 2010 2010-02-20

Data Records for Friday, 19 February 2010

Time	Temp	Chill	HIndex	Humid	Dewpt	 Wind 	HiWind	WindDir	Rain 	Barom 
-----	----	-----	------	-----	-----	------	------	-------	-----	----- 
00:00	25.8	25.8	25.8	86	22.2	1	2	248	0.00	30.092 
00:05	25.8	25.8	25.8	86	22.2	0	2	248	0.00	30.092 
00:10	25.7	25.7	25.7	86	22.1	0	2	248	0.00	30.092 
00:15	25.6	25.6	25.6	86	22.0	0	3	248	0.00	30.092 
00:20	25.4	25.4	25.4	86	21.8	0	1	248	0.00	30.092 
00:25	25.3	25.3	25.3	86	21.7	0	2	248	0.00	30.092 
00:30	25.3	25.3	25.3	86	21.7	0	2	248	0.00	30.093 
00:35	25.1	25.1	25.1	86	21.5	0	2	248	0.00	30.093 
00:40	25.0	25.0	25.0	86	21.4	0	2	248	0.00	30.093 
00:45	25.0	25.0	25.0	86	21.4	0	2	248	0.00	30.095 
00:50	24.8	24.8	24.8	87	21.5	0	3	248	0.00	30.095 
00:55	24.8	24.8	24.8	87	21.5	1	2	248	0.00	30.095 
01:00	24.7	24.7	24.7	87	21.4	1	2	248	0.00	30.103 
01:05	24.7	24.7	24.7	87	21.4	1	3	248	0.00	30.103 
01:10	24.7	24.7	24.7	87	21.4	1	4	248	0.00	30.103 
01:15	24.5	24.5	24.5	87	21.2	0	2	248	0.00	30.104 
01:20	24.4	24.4	24.4	87	21.1	0	2	248	0.00	30.104 
01:25	24.2	24.2	24.2	87	20.9	0	1	248	0.00	30.104 
01:30	24.1	24.1	24.1	87	20.8	0	1	248	0.00	30.104 
01:35	24.1	24.1	24.1	87	20.8	0	1	248	0.00	30.104 
01:40	23.9	23.9	23.9	87	20.6	0	1	248	0.00	30.104 
01:45	23.8	23.8	23.8	87	20.5	0	1	248	0.00	30.104 
01:50	23.6	23.6	23.6	87	20.3	0	1	248	0.00	30.104 
01:55	23.6	23.6	23.6	87	20.3	0	1	248	0.00	30.104 
02:00	23.5	23.5	23.5	88	20.5	0	1	248	0.00	30.103 
02:05	23.3	23.3	23.3	87	20.0	0	0	---	0.00	30.103 
02:10	23.0	23.0	23.0	88	20.0	0	2	248	0.00	30.103 
02:15	22.9	22.9	22.9	88	19.9	0	1	248	0.00	30.106 
02:20	22.7	22.7	22.7	88	19.7	0	1	248	0.00	30.106 
02:25	22.7	22.7	22.7	88	19.7	0	2	248	0.00	30.106 
02:30	22.7	22.7	22.7	88	19.7	0	1	248	0.00	30.106 
02:35	22.7	22.7	22.7	88	19.7	0	2	248	0.00	30.106 
02:40	22.7	22.7	22.7	88	19.7	0	1	248	0.00	30.106 
02:45	22.5	22.5	22.5	88	19.5	0	1	248	0.00	30.107 
02:50	22.5	22.5	22.5	88	19.5	0	2	248	0.00	30.107 
02:55	22.4	22.4	22.4	89	19.7	0	3	248	0.00	30.107 
03:00	22.4	22.4	22.4	89	19.7	0	1	248	0.00	30.108 
03:05	22.4	22.4	22.4	89	19.7	0	2	248	0.00	30.108 
03:10	22.2	22.2	22.2	89	19.5	0	2	248	0.00	30.108 
03:15	22.2	22.2	22.2	89	19.5	0	1	248	0.00	30.106 
03:20	22.1	22.1	22.1	89	19.4	0	1	248	0.00	30.106 
03:25	21.9	21.9	21.9	89	19.2	0	1	248	0.00	30.106 
03:30	21.9	21.9	21.9	89	19.2	0	1	248	0.00	30.105 
03:35	21.9	21.9	21.9	89	19.2	0	1	248	0.00	30.105 
03:40	21.8	21.8	21.8	89	19.1	0	1	248	0.00	30.105 
03:45	21.6	21.6	21.6	89	18.9	0	1	248	0.00	30.104 
03:50	21.6	21.6	21.6	89	18.9	0	0	---	0.00	30.104 
03:55	21.4	21.4	21.4	89	18.7	0	0	---	0.00	30.104 
04:00	21.3	21.3	21.3	89	18.6	0	1	248	0.00	30.108 
04:05	21.3	21.3	21.3	89	18.6	0	1	248	0.00	30.108 
04:10	21.1	21.1	21.1	89	18.4	0	1	248	0.00	30.108 
04:15	21.0	21.0	21.0	89	18.3	0	1	248	0.00	30.109 
04:20	21.0	21.0	21.0	89	18.3	0	0	---	0.00	30.109 
04:25	20.8	20.8	20.8	90	18.3	0	1	248	0.00	30.109 
04:30	20.8	20.8	20.8	90	18.3	0	1	248	0.00	30.108 
04:35	20.8	20.8	20.8	90	18.3	0	0	---	0.00	30.108 
04:40	20.6	20.6	20.6	90	18.1	0	0	---	0.00	30.108 
04:45	20.5	20.5	20.5	90	18.0	0	0	---	0.00	30.108 
04:50	20.3	20.3	20.3	90	17.8	0	0	---	0.00	30.108 
04:55	20.3	20.3	20.3	90	17.8	0	0	---	0.00	30.108 
05:00	20.2	20.2	20.2	90	17.7	0	0	---	0.00	30.110 
05:05	20.0	20.0	20.0	90	17.5	0	0	---	0.00	30.110 
05:10	19.7	19.7	19.7	90	17.3	0	0	---	0.00	30.110 
05:15	19.5	19.5	19.5	90	17.1	0	0	---	0.00	30.110 
05:20	19.4	19.4	19.4	90	17.0	0	0	---	0.00	30.110 
05:25	19.4	19.4	19.4	90	17.0	0	0	---	0.00	30.110 
05:30	19.4	19.4	19.4	90	17.0	0	1	248	0.00	30.113 
05:35	19.2	19.2	19.2	90	16.8	0	0	---	0.00	30.113 
05:40	19.2	19.2	19.2	90	16.8	0	1	248	0.00	30.113 
05:45	19.2	19.2	19.2	90	16.8	0	1	248	0.00	30.113 
05:50	19.4	19.4	19.4	90	17.0	0	1	248	0.00	30.113 
05:55	19.5	19.5	19.5	90	17.1	0	0	---	0.00	30.113 
06:00	19.7	19.7	19.7	90	17.3	0	0	---	0.00	30.115 
06:05	19.7	19.7	19.7	90	17.3	0	0	---	0.00	30.115 
06:10	19.5	19.5	19.5	90	17.1	0	0	---	0.00	30.115 
06:15	19.5	19.5	19.5	90	17.1	0	0	---	0.00	30.120 
06:20	19.4	19.4	19.4	90	17.0	0	1	248	0.00	30.120 
06:25	19.4	19.4	19.4	90	17.0	0	2	248	0.00	30.120 
06:30	19.4	19.4	19.4	90	17.0	0	1	248	0.00	30.127 
06:35	19.4	19.4	19.4	90	17.0	0	2	248	0.00	30.127 
06:40	19.4	19.4	19.4	90	17.0	0	2	248	0.00	30.127 
06:45	19.5	19.5	19.5	90	17.1	0	2	248	0.00	30.130 
06:50	19.5	19.5	19.5	90	17.1	0	1	248	0.00	30.130 
06:55	19.5	19.5	19.5	90	17.1	0	1	248	0.00	30.130 
07:00	19.4	19.4	19.4	90	17.0	0	2	248	0.00	30.133 
07:05	19.5	19.5	19.5	90	17.1	1	2	248	0.00	30.133 
07:10	19.5	19.5	19.5	90	17.1	0	2	248	0.00	30.133 
07:15	19.4	19.4	19.4	90	17.0	0	2	248	0.00	30.145 
07:20	19.4	19.4	19.4	90	17.0	0	1	248	0.00	30.145 
07:25	19.2	19.2	19.2	90	16.8	0	0	---	0.00	30.145 
07:30	19.1	19.1	19.1	90	16.7	0	0	---	0.00	30.149 
07:35	18.8	18.8	18.8	90	16.4	0	1	248	0.00	30.149 
07:40	18.8	18.8	18.8	90	16.4	0	0	---	0.00	30.149 
07:45	18.6	18.6	18.6	90	16.2	0	0	---	0.00	30.159 
07:50	18.6	18.6	18.6	90	16.2	0	0	---	0.00	30.159 
07:55	18.6	18.6	18.6	90	16.2	0	1	248	0.00	30.159 
08:00	18.6	18.6	18.6	90	16.2	0	1	248	0.00	30.165 
08:05	18.8	18.8	18.8	90	16.4	0	1	248	0.00	30.165 
08:10	19.1	19.1	19.1	90	16.7	0	2	248	0.00	30.165 
08:15	19.4	19.4	19.4	90	17.0	1	3	248	0.00	30.178 
08:20	19.7	19.7	19.7	90	17.3	1	3	248	0.00	30.178 
08:25	20.0	20.0	20.0	90	17.5	0	1	248	0.00	30.178 
08:30	20.3	20.3	20.3	90	17.8	0	2	248	0.00	30.179 
08:35	20.5	20.5	20.5	90	18.0	1	3	248	0.00	30.179 
08:40	20.8	20.8	20.8	90	18.3	1	4	270	0.00	30.179 
08:45	21.1	21.1	21.1	89	18.4	1	4	248	0.00	30.181 
08:50	21.3	21.3	21.3	89	18.6	2	5	248	0.00	30.181 
08:55	21.4	21.4	21.4	88	18.4	1	5	248	0.00	30.181 
09:00	21.6	21.6	21.6	88	18.6	1	3	248	0.00	30.185 
09:05	21.9	21.9	21.9	88	18.9	1	4	248	0.00	30.185 
09:10	22.1	22.1	22.1	87	18.8	1	3	248	0.00	30.185 
09:15	22.4	22.4	22.4	86	18.9	1	3	248	0.00	30.189 
09:20	22.7	22.7	22.7	85	18.9	1	4	248	0.00	30.189 
09:25	23.2	23.2	23.2	85	19.4	1	3	270	0.00	30.189 
09:30	23.6	23.6	23.6	84	19.5	1	3	248	0.00	30.192 
09:35	24.1	24.1	24.1	83	19.7	1	4	248	0.00	30.192 
09:40	24.7	24.7	24.7	82	20.0	1	3	248	0.00	30.192 
09:45	25.3	25.3	25.3	81	20.3	1	2	248	0.00	30.193 
09:50	25.7	25.7	25.7	80	20.4	1	4	248	0.00	30.193 
09:55	26.0	26.0	26.0	78	20.1	0	2	248	0.00	30.193 
10:00	26.4	26.4	26.4	77	20.2	1	2	248	0.00	30.190 
10:05	26.9	26.9	26.9	77	20.7	0	2	248	0.00	30.190 
10:10	27.5	27.5	27.5	76	20.9	1	3	248	0.00	30.190 
10:15	27.9	27.9	27.9	75	21.0	1	2	248	0.00	30.190 
10:20	28.2	28.2	28.2	74	21.0	1	2	292	0.00	30.190 
10:25	28.5	28.5	28.5	73	21.0	1	2	292	0.00	30.190 
10:30	28.8	28.8	28.8	73	21.3	1	3	292	0.00	30.186 
10:35	29.4	29.4	29.4	72	21.5	1	4	292	0.00	30.186 
10:40	29.7	29.7	29.7	71	21.5	1	3	270	0.00	30.186 
10:45	30.1	30.1	30.1	71	21.9	1	3	270	0.00	30.185 
10:50	30.6	30.6	30.6	70	22.0	1	3	270	0.00	30.185 
10:55	31.0	31.0	31.0	69	22.0	1	4	270	0.00	30.185 
11:00	31.3	31.3	31.3	69	22.3	1	3	248	0.00	30.184 
11:05	31.8	31.8	31.8	69	22.8	1	3	292	0.00	30.184 
11:10	32.2	32.2	32.2	68	22.8	1	2	292	0.00	30.184 
11:15	32.5	32.5	32.5	67	22.8	1	2	292	0.00	30.180 
11:20	32.8	32.8	32.8	66	22.7	1	3	270	0.00	30.180 
11:25	33.1	33.1	33.1	66	23.0	1	3	248	0.00	30.180 
11:30	33.5	33.5	33.5	65	23.0	1	2	292	0.00	30.175 
11:35	34.0	34.0	34.0	64	23.1	1	4	270	0.00	30.175 
11:40	34.4	34.4	34.4	62	22.7	1	3	248	0.00	30.175 
11:45	34.7	34.7	34.7	62	23.0	1	4	248	0.00	30.174 
11:50	35.0	35.0	35.0	60	22.5	1	3	248	0.00	30.174 
11:55	35.5	35.5	35.5	60	23.0	1	2	248	0.00	30.174 
12:00	35.8	35.8	35.8	57	22.1	1	3	248	0.00	30.175 
12:05	35.9	35.9	35.9	57	22.2	1	3	270	0.00	30.175 
12:10	36.0	36.0	36.0	55	21.4	1	3	270	0.00	30.175 
12:15	36.2	36.2	36.2	56	22.0	1	3	338	0.00	30.170 
12:20	36.3	36.3	36.3	55	21.7	1	2	338	0.00	30.170 
12:25	36.8	36.8	36.8	55	22.2	1	2	225	0.00	30.170 
12:30	36.9	36.9	36.9	54	21.8	1	4	248	0.00	30.170 
12:35	36.9	36.9	36.9	54	21.8	1	3	248	0.00	30.170 
12:40	36.9	36.9	36.9	53	21.4	2	5	248	0.00	30.170 
12:45	36.9	36.9	36.9	52	20.9	2	4	248	0.00	30.176 
12:50	36.9	36.9	36.9	53	21.4	2	4	248	0.00	30.176 
12:55	36.9	36.9	36.9	52	20.9	2	6	248	0.00	30.176 
13:00	37.0	37.0	37.0	52	21.0	1	3	292	0.00	30.168 
13:05	37.3	37.3	37.3	52	21.3	1	5	270	0.00	30.168 
13:10	37.3	37.3	37.3	51	20.9	2	6	270	0.00	30.168 
13:15	37.3	37.3	37.3	52	21.3	1	3	270	0.00	30.177 
13:20	37.5	37.5	37.5	52	21.5	2	4	248	0.00	30.177 
13:25	37.6	37.6	37.6	53	22.0	1	4	248	0.00	30.177 
13:30	37.6	37.6	37.6	51	21.1	2	5	270	0.00	30.170 
13:35	37.8	37.8	37.8	52	21.8	1	4	248	0.00	30.170 
13:40	37.8	37.8	37.8	52	21.8	1	2	292	0.00	30.170 
13:45	37.9	37.9	37.9	52	21.9	2	5	270	0.00	30.167 
13:50	37.9	37.9	37.9	52	21.9	2	6	270	0.00	30.167 
13:55	38.2	38.2	38.2	52	22.1	2	6	270	0.00	30.167 
14:00	38.2	38.2	38.2	51	21.7	2	5	248	0.00	30.167 
14:05	38.3	38.3	38.3	51	21.8	1	4	315	0.00	30.167 
14:10	38.3	38.3	38.3	51	21.8	2	6	270	0.00	30.167 
14:15	38.5	38.5	38.5	51	22.0	1	3	270	0.00	30.167 
14:20	38.6	38.6	38.6	50	21.6	2	4	248	0.00	30.167 
14:25	38.8	38.8	38.8	50	21.8	1	3	248	0.00	30.167 
14:30	38.9	38.9	38.9	49	21.4	2	5	248	0.00	30.165 
14:35	39.1	39.1	39.1	49	21.6	2	5	248	0.00	30.165 
14:40	39.2	39.2	39.2	49	21.7	2	5	248	0.00	30.165 
14:45	39.5	39.5	39.5	49	21.9	1	4	248	0.00	30.164 
14:50	39.5	39.5	39.5	47	21.0	2	6	248	0.00	30.164 
14:55	39.6	39.6	39.6	46	20.5	2	4	270	0.00	30.164 
15:00	39.8	39.8	39.8	47	21.2	1	3	270	0.00	30.156 
15:05	40.1	40.1	40.1	48	22.0	1	3	248	0.00	30.156 
15:10	40.2	40.2	40.2	46	21.1	2	4	248	0.00	30.156 
15:15	40.1	40.1	40.1	47	21.5	1	3	248	0.00	30.156 
15:20	40.2	40.2	40.2	47	21.6	1	3	248	0.00	30.156 
15:25	40.5	40.5	40.5	46	21.4	1	4	248	0.00	30.156 
15:30	40.3	40.3	40.3	45	20.7	1	4	248	0.00	30.154 
15:35	40.6	40.6	40.6	46	21.5	1	5	248	0.00	30.154 
15:40	40.6	40.6	40.6	46	21.5	1	4	248	0.00	30.154 
15:45	40.5	40.5	40.5	45	20.8	2	4	248	0.00	30.155 
15:50	40.3	40.3	40.3	45	20.7	1	4	248	0.00	30.155 
15:55	40.1	40.1	40.1	47	21.5	1	3	248	0.00	30.155 
16:00	40.2	40.2	40.2	46	21.1	2	4	248	0.00	30.162 
16:05	40.1	40.1	40.1	47	21.5	1	6	270	0.00	30.162 
16:10	39.8	39.8	39.8	44	19.7	1	4	270	0.00	30.162 
16:15	39.8	39.8	39.8	46	20.7	1	3	270	0.00	30.168 
16:20	39.8	39.8	39.8	47	21.2	1	3	225	0.00	30.168 
16:25	39.5	39.5	39.5	46	20.5	2	4	270	0.00	30.168 
16:30	39.5	39.5	39.5	46	20.5	2	5	248	0.00	30.167 
16:35	39.3	39.3	39.3	45	19.8	1	4	338	0.00	30.167 
16:40	39.2	39.2	39.2	45	19.7	2	5	270	0.00	30.167 
16:45	39.1	39.1	39.1	45	19.6	1	4	270	0.00	30.169 
16:50	38.8	38.8	38.8	46	19.8	1	4	270	0.00	30.169 
16:55	38.5	38.5	38.5	46	19.5	1	4	338	0.00	30.169 
17:00	38.5	38.5	38.5	47	20.0	1	3	315	0.00	30.170 
17:05	38.5	38.5	38.5	48	20.5	1	4	315	0.00	30.170 
17:10	38.3	38.3	38.3	49	20.8	1	4	248	0.00	30.170 
17:15	38.0	38.0	38.0	48	20.1	2	4	270	0.00	30.171 
17:20	37.8	37.8	37.8	49	20.4	1	3	315	0.00	30.171 
17:25	37.6	37.6	37.6	48	19.7	1	4	338	0.00	30.171 
17:30	37.5	37.5	37.5	49	20.1	1	3	270	0.00	30.173 
17:35	37.3	37.3	37.3	49	19.9	1	2	270	0.00	30.173 
17:40	37.2	37.2	37.2	48	19.3	1	2	315	0.00	30.173 
17:45	36.9	36.9	36.9	49	19.5	0	1	315	0.00	30.174 
17:50	36.6	36.6	36.6	50	19.7	0	1	315	0.00	30.174 
17:55	36.3	36.3	36.3	50	19.5	0	1	315	0.00	30.174 
18:00	36.0	36.0	36.0	50	19.2	0	1	315	0.00	30.178 
18:05	35.8	35.8	35.8	50	19.0	0	2	315	0.00	30.178 
18:10	35.5	35.5	35.5	50	18.7	0	1	315	0.00	30.178 
18:15	35.5	35.5	35.5	50	18.7	1	3	248	0.00	30.182 
18:20	35.3	35.3	35.3	50	18.5	0	2	248	0.00	30.182 
18:25	35.0	35.0	35.0	50	18.3	0	1	248	0.00	30.182 
18:30	34.7	34.7	34.7	51	18.4	0	0	---	0.00	30.189 
18:35	34.4	34.4	34.4	52	18.6	0	1	248	0.00	30.189 
18:40	34.0	34.0	34.0	53	18.7	0	1	248	0.00	30.189 
18:45	33.7	33.7	33.7	54	18.8	0	0	---	0.00	30.193 
18:50	33.4	33.4	33.4	54	18.6	0	0	---	0.00	30.193 
18:55	33.1	33.1	33.1	55	18.7	0	0	---	0.00	30.193 
19:00	32.9	32.9	32.9	55	18.5	0	0	---	0.00	30.195 
19:05	32.7	32.7	32.7	56	18.8	0	0	---	0.00	30.195 
19:10	32.4	32.4	32.4	56	18.5	0	0	---	0.00	30.195 
19:15	32.1	32.1	32.1	57	18.6	0	0	---	0.00	30.201 
19:20	31.6	31.6	31.6	58	18.5	0	0	---	0.00	30.201 
19:25	31.3	31.3	31.3	58	18.3	0	0	---	0.00	30.201 
19:30	31.0	31.0	31.0	60	18.8	0	0	---	0.00	30.207 
19:35	30.7	30.7	30.7	61	18.9	0	0	---	0.00	30.207 
19:40	30.7	30.7	30.7	62	19.2	0	1	248	0.00	30.207 
19:45	30.9	30.9	30.9	63	19.8	0	2	248	0.00	30.210 
19:50	30.9	30.9	30.9	63	19.8	0	1	248	0.00	30.210 
19:55	30.9	30.9	30.9	64	20.2	0	0	---	0.00	30.210 
20:00	30.6	30.6	30.6	65	20.3	0	0	---	0.00	30.210 
20:05	30.4	30.4	30.4	65	20.1	0	0	---	0.00	30.210 
20:10	30.1	30.1	30.1	66	20.1	0	0	---	0.00	30.210 
20:15	29.8	29.8	29.8	67	20.2	0	0	---	0.00	30.208 
20:20	29.5	29.5	29.5	68	20.3	0	0	---	0.00	30.208 
20:25	29.4	29.4	29.4	68	20.2	0	0	---	0.00	30.208 
20:30	29.1	29.1	29.1	69	20.2	0	0	---	0.00	30.210 
20:35	29.0	29.0	29.0	69	20.1	0	0	---	0.00	30.210 
20:40	28.7	28.7	28.7	69	19.8	0	0	---	0.00	30.210 
20:45	28.4	28.4	28.4	70	19.9	0	0	---	0.00	30.213 
20:50	28.1	28.1	28.1	71	19.9	0	0	---	0.00	30.213 
20:55	27.8	27.8	27.8	71	19.6	0	0	---	0.00	30.213 
21:00	27.5	27.5	27.5	72	19.7	0	0	---	0.00	30.211 
21:05	27.3	27.3	27.3	73	19.8	0	0	---	0.00	30.211 
21:10	27.5	27.5	27.5	74	20.3	0	0	---	0.00	30.211 
21:15	27.6	27.6	27.6	74	20.4	0	0	---	0.00	30.213 
21:20	27.8	27.8	27.8	74	20.6	0	1	248	0.00	30.213 
21:25	27.9	27.9	27.9	73	20.4	0	1	248	0.00	30.213 
21:30	27.9	27.9	27.9	73	20.4	0	1	248	0.00	30.219 
21:35	27.9	27.9	27.9	73	20.4	0	1	248	0.00	30.219 
21:40	28.1	28.1	28.1	73	20.6	1	3	248	0.00	30.219 
21:45	28.5	28.5	28.5	73	21.0	0	3	248	0.00	30.220 
21:50	28.8	28.8	28.8	72	20.9	0	2	248	0.00	30.220 
21:55	29.0	29.0	29.0	71	20.8	0	2	248	0.00	30.220 
22:00	29.0	29.0	29.0	71	20.8	0	1	248	0.00	30.217 
22:05	29.0	29.0	29.0	70	20.5	0	1	248	0.00	30.217 
22:10	29.0	29.0	29.0	70	20.5	0	0	---	0.00	30.217 
22:15	28.7	28.7	28.7	70	20.2	0	0	---	0.00	30.207 
22:20	28.5	28.5	28.5	71	20.3	0	0	---	0.00	30.207 
22:25	28.2	28.2	28.2	71	20.0	0	0	---	0.00	30.207 
22:30	28.1	28.1	28.1	71	19.9	0	0	---	0.00	30.208 
22:35	27.9	27.9	27.9	72	20.1	0	0	---	0.00	30.208 
22:40	27.8	27.8	27.8	72	20.0	0	0	---	0.00	30.208 
22:45	27.6	27.6	27.6	73	20.1	0	0	---	0.00	30.213 
22:50	27.5	27.5	27.5	73	20.0	0	0	---	0.00	30.213 
22:55	27.3	27.3	27.3	73	19.8	0	0	---	0.00	30.213 
23:00	27.2	27.2	27.2	73	19.7	0	0	---	0.00	30.208 
23:05	27.0	27.0	27.0	73	19.5	0	0	---	0.00	30.208 
23:10	27.0	27.0	27.0	74	19.8	0	0	---	0.00	30.208 
23:15	26.9	26.9	26.9	74	19.7	0	0	---	0.00	30.208 
23:20	26.9	26.9	26.9	74	19.7	0	0	---	0.00	30.208 
23:25	26.9	26.9	26.9	74	19.7	0	0	---	0.00	30.208 
23:30	26.7	26.7	26.7	74	19.5	0	0	---	0.00	30.213 
23:35	26.6	26.6	26.6	74	19.5	0	0	---	0.00	30.213 
23:40	26.6	26.6	26.6	74	19.5	0	0	---	0.00	30.213 
23:45	26.3	26.3	26.3	75	19.5	0	0	---	0.00	30.213 
23:50	26.0	26.0	26.0	75	19.2	0	0	---	0.00	30.213 
23:55	25.7	25.7	25.7	75	18.9	0	0	---	0.00	30.213 

CoCoRaHS
IN-AL-39
A2 Web Hosting
Creative Commons License
GoDaddy
search engine by freefind advanced

loaded 2018-11-21 01:48:32 • last modified 2010-11-18 10:43:29
Privacy PolicyDisclaimer
• wx.awcolley.com is powered by PmWiki v.2002016 •
• all content (unless otherwise noted) © 2018 A W Colley